createdAt,value
2019-02-06T00:01:31.683Z,67.40
2019-02-06T00:04:02.596Z,66.47
2019-02-06T00:06:34.861Z,67.07
2019-02-06T00:09:14.004Z,63.80
2019-02-06T00:11:44.647Z,63.43
2019-02-06T00:14:15.321Z,64.42
2019-02-06T00:16:45.889Z,68.77
2019-02-06T00:19:16.483Z,67.67
2019-02-06T00:21:47.573Z,66.33
2019-02-06T00:24:18.219Z,66.63
2019-02-06T00:26:49.000Z,65.77
2019-02-06T00:29:19.626Z,62.80
2019-02-06T00:31:50.163Z,62.20
2019-02-06T00:34:21.699Z,64.40
2019-02-06T00:36:53.091Z,61.97
2019-02-06T00:39:23.754Z,60.58
2019-02-06T00:41:54.238Z,63.13
2019-02-06T00:44:24.861Z,63.13
2019-02-06T00:46:55.798Z,62.27
2019-02-06T00:49:26.810Z,62.53
2019-02-06T00:51:57.403Z,59.87
2019-02-06T00:54:27.744Z,60.10
2019-02-06T00:56:59.675Z,66.40
2019-02-06T00:59:30.556Z,58.57
2019-02-06T01:02:02.455Z,58.20
2019-02-06T01:04:33.118Z,60.27
2019-02-06T01:07:03.885Z,58.73
2019-02-06T01:09:35.594Z,60.53
2019-02-06T01:12:06.222Z,61.57
2019-02-06T01:14:39.427Z,57.87
2019-02-06T01:17:10.086Z,57.83
2019-02-06T01:19:40.881Z,57.50
2019-02-06T01:22:11.507Z,60.98
2019-02-06T01:24:42.427Z,62.73
2019-02-06T01:27:13.396Z,59.57
2019-02-06T01:29:43.897Z,63.30
2019-02-06T01:32:16.447Z,60.65
2019-02-06T01:34:46.994Z,64.13
2019-02-06T01:37:17.596Z,59.97
2019-02-06T01:39:48.303Z,65.03
2019-02-06T01:42:18.879Z,66.80
2019-02-06T01:44:49.776Z,63.13
2019-02-06T01:47:20.246Z,66.73
2019-02-06T01:49:50.880Z,63.33
2019-02-06T01:52:21.477Z,66.83
2019-02-06T01:54:54.475Z,69.50
2019-02-06T01:57:25.593Z,62.53
2019-02-06T01:59:56.175Z,73.87
2019-02-06T02:02:27.128Z,63.73
2019-02-06T02:04:57.592Z,65.55
2019-02-06T02:07:28.246Z,71.07
2019-02-06T02:09:58.831Z,68.37
2019-02-06T02:12:30.853Z,68.00
2019-02-06T02:15:03.739Z,70.77
2019-02-06T02:17:35.233Z,62.63
2019-02-06T02:20:08.822Z,69.90
2019-02-06T02:22:39.344Z,67.87
2019-02-06T02:25:09.928Z,69.60
2019-02-06T02:27:40.252Z,64.63
2019-02-06T02:30:13.523Z,67.10
2019-02-06T02:32:44.590Z,72.03
2019-02-06T02:35:15.322Z,70.45
2019-02-06T02:37:45.758Z,71.17
2019-02-06T02:40:16.541Z,71.77
2019-02-06T02:42:47.011Z,75.25
2019-02-06T02:45:18.895Z,74.45
2019-02-06T02:47:50.926Z,73.03
2019-02-06T02:50:21.410Z,73.47
2019-02-06T02:52:51.931Z,77.50
2019-02-06T02:55:22.689Z,74.33
2019-02-06T02:57:54.593Z,75.63
2019-02-06T03:00:31.516Z,72.70
2019-02-06T03:03:14.473Z,76.40
2019-02-06T03:05:44.928Z,80.03
2019-02-06T03:08:15.400Z,72.00
2019-02-06T03:10:47.193Z,68.23
2019-02-06T03:13:19.243Z,74.97
2019-02-06T03:15:49.658Z,73.93
2019-02-06T03:18:20.579Z,74.07
2019-02-06T03:20:51.064Z,72.37
2019-02-06T03:23:21.812Z,76.05
2019-02-06T03:25:52.176Z,73.67
2019-02-06T03:28:22.780Z,74.50
2019-02-06T03:30:53.492Z,69.57
2019-02-06T03:33:23.873Z,71.42
2019-02-06T03:35:54.476Z,70.80
2019-02-06T03:38:25.300Z,72.50
2019-02-06T03:40:55.732Z,71.80
2019-02-06T03:43:26.063Z,68.87
2019-02-06T03:45:56.774Z,71.10
2019-02-06T03:48:27.214Z,70.07
2019-02-06T03:50:57.598Z,77.10
2019-02-06T03:53:28.249Z,70.47
2019-02-06T03:55:58.945Z,70.17
2019-02-06T03:58:32.431Z,73.17
2019-02-06T04:01:03.542Z,71.15
2019-02-06T04:03:35.006Z,72.23
2019-02-06T04:06:06.622Z,69.77
2019-02-06T04:08:37.200Z,73.20
2019-02-06T04:11:09.600Z,70.07
2019-02-06T04:13:40.436Z,67.57
2019-02-06T04:16:12.390Z,66.80
2019-02-06T04:18:43.410Z,69.73
2019-02-06T04:21:14.124Z,68.45
2019-02-06T04:23:44.812Z,67.82
2019-02-06T04:26:16.427Z,71.57
2019-02-06T04:28:46.823Z,71.00
2019-02-06T04:31:17.709Z,66.13
2019-02-06T04:33:48.059Z,73.13
2019-02-06T04:36:19.162Z,67.10
2019-02-06T04:38:49.705Z,67.57
2019-02-06T04:41:21.666Z,66.57
2019-02-06T04:43:52.113Z,67.67
2019-02-06T04:46:22.462Z,68.25
2019-02-06T04:48:53.612Z,66.40
2019-02-06T04:51:23.971Z,69.47
2019-02-06T04:53:54.615Z,70.17
2019-02-06T04:56:25.130Z,69.43
2019-02-06T04:58:55.892Z,67.30
2019-02-06T05:01:28.394Z,68.17
2019-02-06T05:03:58.826Z,66.47
2019-02-06T05:06:29.897Z,65.87
2019-02-06T05:09:00.666Z,67.57
2019-02-06T05:11:39.096Z,71.53
2019-02-06T05:14:10.577Z,67.12
2019-02-06T05:16:42.011Z,68.77
2019-02-06T05:19:13.362Z,68.87
2019-02-06T05:21:43.704Z,70.90
2019-02-06T05:24:14.436Z,69.75
2019-02-06T05:26:45.973Z,65.97
2019-02-06T05:29:16.659Z,70.97
2019-02-06T05:31:47.353Z,70.53
2019-02-06T05:34:17.978Z,68.70
2019-02-06T05:36:50.953Z,68.87
2019-02-06T05:39:20.503Z,70.22
2019-02-06T05:41:51.145Z,70.30
2019-02-06T05:44:23.106Z,68.40
2019-02-06T05:46:53.751Z,64.93
2019-02-06T05:49:26.316Z,67.20
2019-02-06T05:51:56.812Z,63.00
2019-02-06T05:54:27.499Z,68.57
2019-02-06T05:56:58.055Z,67.37
2019-02-06T05:59:28.710Z,61.67
2019-02-06T06:01:59.419Z,63.73
2019-02-06T06:04:30.082Z,67.57
2019-02-06T06:07:00.992Z,63.00
2019-02-06T06:09:33.303Z,67.13
2019-02-06T06:12:03.847Z,69.33
2019-02-06T06:14:34.337Z,65.03
2019-02-06T06:17:07.501Z,66.37
2019-02-06T06:19:38.348Z,67.30
2019-02-06T06:22:09.002Z,66.47
2019-02-06T06:24:39.634Z,69.47
2019-02-06T06:27:10.552Z,69.60
2019-02-06T06:29:40.995Z,66.83
2019-02-06T06:32:11.511Z,68.60
2019-02-06T06:34:42.251Z,66.13
2019-02-06T06:37:12.603Z,67.27
2019-02-06T06:39:42.998Z,64.00
2019-02-06T06:42:13.736Z,60.63
2019-02-06T06:44:44.249Z,64.67
2019-02-06T06:47:14.626Z,66.35
2019-02-06T06:49:45.244Z,63.73
2019-02-06T06:52:15.731Z,68.67
2019-02-06T06:54:46.589Z,73.67
2019-02-06T06:57:17.201Z,70.47
2019-02-06T06:59:47.656Z,66.70
2019-02-06T07:02:18.388Z,67.50
2019-02-06T07:04:48.853Z,68.40
2019-02-06T07:07:19.316Z,67.73
2019-02-06T07:09:50.174Z,70.90
2019-02-06T07:12:20.584Z,76.72
2019-02-06T07:14:51.053Z,76.70
2019-02-06T07:17:21.804Z,71.27
2019-02-06T07:19:52.397Z,70.33
2019-02-06T07:22:22.912Z,71.50
2019-02-06T07:24:53.614Z,68.97
2019-02-06T07:27:23.990Z,70.87
2019-02-06T07:29:54.813Z,74.70
2019-02-06T07:32:25.170Z,79.57
2019-02-06T07:34:55.949Z,83.80
2019-02-06T07:37:26.528Z,81.40
2019-02-06T07:39:56.927Z,83.23
2019-02-06T07:42:27.557Z,81.32
2019-02-06T07:44:58.290Z,81.60
2019-02-06T07:47:28.787Z,76.10
2019-02-06T07:49:59.308Z,85.20
2019-02-06T07:52:29.656Z,83.47
2019-02-06T07:55:00.064Z,80.70
2019-02-06T07:57:30.517Z,81.17
2019-02-06T08:00:00.916Z,80.70
2019-02-06T08:02:31.363Z,79.00
2019-02-06T08:05:02.046Z,81.27
2019-02-06T08:07:32.471Z,72.83
2019-02-06T08:10:02.949Z,76.47
2019-02-06T08:12:34.026Z,75.50
2019-02-06T08:15:05.158Z,74.53
2019-02-06T08:17:36.172Z,76.30
2019-02-06T08:20:07.746Z,75.53
2019-02-06T08:22:38.187Z,70.90
2019-02-06T08:25:08.967Z,71.20
2019-02-06T08:27:39.423Z,76.20
2019-02-06T08:30:17.323Z,74.55
2019-02-06T08:32:47.855Z,76.27
2019-02-06T08:35:18.262Z,81.92
2019-02-06T08:37:50.150Z,73.40
2019-02-06T08:40:20.982Z,73.33
2019-02-06T08:42:53.311Z,73.80
2019-02-06T08:45:25.003Z,76.92
2019-02-06T08:47:55.549Z,75.37
2019-02-06T08:50:26.663Z,71.00
2019-02-06T08:52:57.245Z,71.07
2019-02-06T08:55:29.212Z,73.47
2019-02-06T08:57:59.989Z,73.77
2019-02-06T09:00:33.306Z,70.87
2019-02-06T09:03:04.715Z,67.60
2019-02-06T09:05:35.347Z,70.63
2019-02-06T09:08:06.355Z,70.00
2019-02-06T09:10:37.197Z,65.10
2019-02-06T09:13:08.189Z,64.77
2019-02-06T09:15:40.680Z,65.10
2019-02-06T09:18:13.070Z,64.72
2019-02-06T09:20:44.228Z,64.30
2019-02-06T09:23:16.050Z,64.23
2019-02-06T09:25:46.859Z,61.00
2019-02-06T09:28:17.344Z,57.05
2019-02-06T09:30:48.216Z,52.53
2019-02-06T09:33:19.068Z,56.48
2019-02-06T09:35:49.589Z,53.92
2019-02-06T09:38:20.191Z,52.43
2019-02-06T09:40:50.980Z,52.83
2019-02-06T09:43:21.458Z,52.45
2019-02-06T09:45:52.392Z,49.83
2019-02-06T09:48:23.973Z,51.13
2019-02-06T09:50:55.105Z,51.60
2019-02-06T09:53:25.767Z,46.87
2019-02-06T09:55:56.844Z,47.37
2019-02-06T09:58:29.520Z,56.30
2019-02-06T10:01:00.230Z,45.63
2019-02-06T10:03:32.750Z,51.37
2019-02-06T10:06:03.330Z,46.47
2019-02-06T10:08:35.234Z,45.90
2019-02-06T10:11:06.751Z,47.10
2019-02-06T10:13:37.593Z,48.07
2019-02-06T10:16:10.051Z,47.50
2019-02-06T10:18:40.805Z,54.42
2019-02-06T10:21:11.498Z,51.35
2019-02-06T10:23:41.996Z,51.00
2019-02-06T10:26:13.430Z,58.43
2019-02-06T10:28:44.431Z,58.33
2019-02-06T10:31:15.272Z,56.57
2019-02-06T10:33:46.043Z,58.33
2019-02-06T10:36:16.771Z,54.30
2019-02-06T10:38:47.517Z,57.17
2019-02-06T10:41:19.527Z,53.13
2019-02-06T10:43:51.518Z,55.33
2019-02-06T10:46:23.560Z,56.50
2019-02-06T10:48:54.137Z,57.17
2019-02-06T10:51:25.116Z,54.83
2019-02-06T10:53:55.693Z,64.27
2019-02-06T10:56:26.717Z,56.03
2019-02-06T10:58:57.571Z,56.40
2019-02-06T11:01:28.616Z,58.17
2019-02-06T11:04:00.468Z,53.67
2019-02-06T11:06:30.916Z,50.60
2019-02-06T11:09:04.166Z,54.27
2019-02-06T11:11:35.200Z,51.37
2019-02-06T11:14:05.949Z,56.33
2019-02-06T11:16:37.619Z,50.47
2019-02-06T11:19:09.415Z,47.07
2019-02-06T11:21:41.257Z,46.80
2019-02-06T11:24:11.594Z,47.98
2019-02-06T11:26:42.792Z,46.20
2019-02-06T11:29:13.322Z,43.90
2019-02-06T11:31:44.349Z,40.30
2019-02-06T11:34:15.099Z,38.13
2019-02-06T11:36:45.639Z,37.48
2019-02-06T11:39:24.350Z,34.47
2019-02-06T11:41:55.039Z,36.40
2019-02-06T11:44:25.516Z,38.38
2019-02-06T11:46:56.257Z,37.23
2019-02-06T11:49:32.234Z,34.80
2019-02-06T11:52:02.787Z,32.50
2019-02-06T11:54:34.362Z,35.70
2019-02-06T11:57:07.115Z,34.23
2019-02-06T11:59:39.065Z,33.93
2019-02-06T12:02:09.584Z,30.53
2019-02-06T12:04:40.541Z,32.00
2019-02-06T12:07:11.180Z,30.70
2019-02-06T12:09:41.937Z,32.63
2019-02-06T12:12:12.998Z,37.77
2019-02-06T12:14:43.709Z,34.27
2019-02-06T12:17:14.191Z,37.03
2019-02-06T12:19:46.461Z,33.42
2019-02-06T12:22:19.508Z,32.48
2019-02-06T12:24:51.726Z,29.40
2019-02-06T12:27:22.112Z,22.77
2019-02-06T12:29:53.108Z,25.87
2019-02-06T12:32:23.458Z,29.63
2019-02-06T12:34:54.020Z,25.07
2019-02-06T12:37:24.835Z,26.23
2019-02-06T12:39:55.981Z,27.20
2019-02-06T12:42:26.754Z,25.00
2019-02-06T12:44:59.090Z,23.07
2019-02-06T12:47:29.872Z,24.30
2019-02-06T12:50:00.412Z,25.43
2019-02-06T12:52:31.186Z,23.53
2019-02-06T12:55:03.067Z,23.47
2019-02-06T12:57:37.129Z,22.90
2019-02-06T13:00:10.566Z,21.70
2019-02-06T13:02:43.375Z,23.33
2019-02-06T13:05:14.418Z,22.07
2019-02-06T13:07:45.097Z,25.23
2019-02-06T13:10:16.414Z,26.23
2019-02-06T13:12:49.045Z,20.50
2019-02-06T13:15:19.492Z,14.68
2019-02-06T13:17:50.435Z,15.03
2019-02-06T13:20:24.305Z,14.10
2019-02-06T13:22:55.383Z,19.83
2019-02-06T13:25:25.948Z,19.53
2019-02-06T13:27:56.416Z,19.00
2019-02-06T13:30:29.276Z,19.37
2019-02-06T13:33:00.175Z,19.60
2019-02-06T13:35:32.449Z,14.57
2019-02-06T13:38:03.414Z,14.50
2019-02-06T13:40:45.240Z,14.50
2019-02-06T13:43:08.882Z,18.23
2019-02-06T13:45:43.148Z,16.17
2019-02-06T13:48:14.402Z,16.15
2019-02-06T13:50:45.229Z,16.97
2019-02-06T13:53:15.922Z,15.93
2019-02-06T13:55:46.571Z,18.40
2019-02-06T13:58:20.409Z,16.37
2019-02-06T14:00:52.158Z,14.43
2019-02-06T14:03:21.338Z,13.18
2019-02-06T14:05:52.077Z,12.67
2019-02-06T14:08:22.823Z,15.40
2019-02-06T14:11:00.117Z,12.67
2019-02-06T14:13:25.789Z,14.30
2019-02-06T14:15:56.485Z,11.40
2019-02-06T14:18:27.191Z,12.47
2019-02-06T14:20:57.718Z,11.47
2019-02-06T14:23:50.471Z,10.93
2019-02-06T14:26:48.042Z,11.00
2019-02-06T14:30:08.968Z,11.77
2019-02-06T14:33:45.314Z,13.25
2019-02-06T14:36:51.509Z,12.27
2019-02-06T14:39:48.853Z,9.57
2019-02-06T14:42:48.566Z,11.30
2019-02-06T14:45:59.232Z,14.10
2019-02-06T14:49:09.755Z,9.23
2019-02-06T14:52:16.577Z,9.20
2019-02-06T14:55:30.125Z,10.33
2019-02-06T14:58:39.120Z,10.37
2019-02-06T15:01:34.796Z,10.80
2019-02-06T15:04:44.310Z,13.40
2019-02-06T15:08:08.152Z,13.87
2019-02-06T15:10:59.729Z,11.55
2019-02-06T15:14:11.721Z,12.63
2019-02-06T15:17:19.464Z,12.70
2019-02-06T15:20:22.673Z,13.00
2019-02-06T15:23:38.070Z,12.83
2019-02-06T15:26:49.517Z,33.10
2019-02-06T15:29:33.348Z,53.28
2019-02-06T15:32:37.237Z,78.10
2019-02-06T15:36:01.969Z,65.10
2019-02-06T15:39:01.608Z,21.00
2019-02-06T15:42:15.126Z,14.90
2019-02-06T15:45:15.222Z,16.77
2019-02-06T15:47:54.631Z,22.40
2019-02-06T15:50:56.797Z,19.27
2019-02-06T15:54:02.836Z,15.80
2019-02-06T15:57:01.018Z,13.17
2019-02-06T16:00:15.104Z,19.00
2019-02-06T16:03:13.799Z,18.63
2019-02-06T16:06:32.862Z,15.77
2019-02-06T16:09:56.567Z,20.67
2019-02-06T16:12:56.047Z,30.50
2019-02-06T16:15:47.321Z,33.10
2019-02-06T16:18:49.158Z,34.38
2019-02-06T16:21:53.823Z,32.60
2019-02-06T16:24:53.185Z,37.20
2019-02-06T16:27:36.454Z,31.42
2019-02-06T16:30:58.438Z,35.63
2019-02-06T16:34:12.397Z,35.53
2019-02-06T16:36:52.894Z,40.40
2019-02-06T16:40:07.652Z,40.80
2019-02-06T16:43:02.620Z,44.57
2019-02-06T16:46:19.830Z,27.73
2019-02-06T16:49:30.912Z,32.50
2019-02-06T16:52:12.181Z,27.93
2019-02-06T16:55:21.901Z,40.57
2019-02-06T16:58:29.433Z,31.37
2019-02-06T17:01:40.092Z,19.40
2019-02-06T17:04:41.752Z,20.20
2019-02-06T17:07:36.191Z,20.88
2019-02-06T17:10:41.019Z,14.80
2019-02-06T17:13:46.585Z,14.78
2019-02-06T17:16:34.791Z,18.63
2019-02-06T17:19:53.306Z,16.87
2019-02-06T17:22:41.112Z,19.65
2019-02-06T17:25:49.218Z,18.65
2019-02-06T17:28:47.779Z,28.30
2019-02-06T17:31:56.786Z,32.00
2019-02-06T17:35:08.859Z,29.47
2019-02-06T17:38:14.534Z,30.17
2019-02-06T17:41:27.868Z,29.50
2019-02-06T17:44:31.138Z,28.17
2019-02-06T17:47:51.679Z,31.87
2019-02-06T17:50:48.858Z,35.43
2019-02-06T17:53:34.598Z,30.30
2019-02-06T17:56:06.413Z,37.17
2019-02-06T17:58:40.466Z,32.73
2019-02-06T18:01:22.062Z,37.87
2019-02-06T18:03:56.284Z,30.30
2019-02-06T18:06:39.682Z,36.03
2019-02-06T18:09:29.535Z,40.63
2019-02-06T18:12:28.862Z,38.20
2019-02-06T18:15:27.341Z,37.98
2019-02-06T18:18:25.705Z,38.77
2019-02-06T18:21:24.618Z,42.73
2019-02-06T18:24:20.475Z,48.37
2019-02-06T18:27:17.190Z,55.33
2019-02-06T18:30:02.485Z,62.98
2019-02-06T18:32:46.063Z,85.93
2019-02-06T18:35:17.655Z,80.60
2019-02-06T18:37:50.331Z,77.17
2019-02-06T18:40:22.967Z,76.05
2019-02-06T18:42:53.816Z,76.73
2019-02-06T18:45:27.802Z,74.03
2019-02-06T18:48:03.001Z,81.67
2019-02-06T18:50:36.874Z,79.70
2019-02-06T18:53:08.439Z,85.90
2019-02-06T18:55:39.287Z,89.37
2019-02-06T18:58:10.840Z,90.92
2019-02-06T19:00:42.114Z,90.30
2019-02-06T19:03:16.818Z,103.63
2019-02-06T19:05:48.129Z,105.57
2019-02-06T19:08:19.107Z,96.70
2019-02-06T19:10:50.821Z,101.07
2019-02-06T19:13:21.633Z,111.13
2019-02-06T19:15:56.489Z,104.67
2019-02-06T19:18:26.390Z,110.40
2019-02-06T19:20:57.495Z,112.37
2019-02-06T19:23:50.184Z,112.57
2019-02-06T19:26:20.649Z,107.45
2019-02-06T19:28:51.118Z,120.47
2019-02-06T19:31:21.721Z,107.40
2019-02-06T19:33:53.094Z,103.07
2019-02-06T19:36:24.654Z,110.55
2019-02-06T19:38:55.300Z,110.93
2019-02-06T19:41:25.745Z,110.30
2019-02-06T19:43:56.315Z,102.80
2019-02-06T19:46:26.784Z,107.77
2019-02-06T19:48:58.016Z,105.50
2019-02-06T19:51:28.813Z,94.87
2019-02-06T19:53:59.268Z,96.03
2019-02-06T19:56:30.223Z,95.63
2019-02-06T19:59:01.141Z,100.15
2019-02-06T20:01:31.794Z,108.93
2019-02-06T20:04:02.448Z,119.13
2019-02-06T20:06:34.503Z,122.97
2019-02-06T20:09:13.167Z,109.00
2019-02-06T20:11:43.683Z,113.43
2019-02-06T20:14:14.244Z,111.40
2019-02-06T20:16:44.772Z,115.42
2019-02-06T20:19:15.139Z,118.70
2019-02-06T20:21:46.067Z,125.10
2019-02-06T20:24:16.598Z,116.08
2019-02-06T20:26:47.363Z,118.97
2019-02-06T20:29:18.074Z,129.78
2019-02-06T20:31:49.119Z,126.45
2019-02-06T20:34:19.795Z,126.20
2019-02-06T20:36:50.657Z,118.03
2019-02-06T20:39:21.127Z,132.00
2019-02-06T20:41:51.625Z,134.60
2019-02-06T20:44:22.114Z,130.93
2019-02-06T20:46:55.751Z,135.87
2019-02-06T20:49:25.120Z,139.03
2019-02-06T20:51:56.093Z,141.77
2019-02-06T20:54:26.716Z,139.43
2019-02-06T20:56:58.367Z,137.50
2019-02-06T20:59:28.926Z,134.20
2019-02-06T21:01:59.736Z,127.97
2019-02-06T21:04:30.310Z,131.97
2019-02-06T21:07:00.779Z,140.13
2019-02-06T21:09:31.184Z,135.03
2019-02-06T21:12:01.909Z,145.40
2019-02-06T21:14:32.647Z,143.27
2019-02-06T21:17:03.213Z,143.07
2019-02-06T21:19:33.881Z,132.90
2019-02-06T21:22:04.435Z,143.30
2019-02-06T21:24:34.945Z,132.47
2019-02-06T21:27:06.738Z,132.67
2019-02-06T21:29:37.530Z,135.60
2019-02-06T21:32:09.494Z,129.77
2019-02-06T21:34:40.145Z,122.87
2019-02-06T21:37:10.531Z,123.97
2019-02-06T21:39:40.981Z,118.13
2019-02-06T21:42:11.426Z,112.53
2019-02-06T21:44:41.996Z,120.95
2019-02-06T21:47:12.597Z,120.40
2019-02-06T21:49:43.215Z,119.30
2019-02-06T21:52:14.095Z,123.57
2019-02-06T21:54:45.867Z,131.57
2019-02-06T21:57:16.513Z,136.45
2019-02-06T21:59:48.457Z,125.63
2019-02-06T22:02:18.856Z,146.57
2019-02-06T22:04:49.220Z,123.30
2019-02-06T22:07:19.814Z,120.60
2019-02-06T22:09:50.210Z,117.90
2019-02-06T22:12:21.163Z,106.72
2019-02-06T22:14:51.769Z,105.97
2019-02-06T22:17:22.207Z,105.23
2019-02-06T22:19:52.690Z,106.23
2019-02-06T22:22:23.491Z,115.17
2019-02-06T22:24:54.354Z,114.00
2019-02-06T22:27:25.531Z,112.30
2019-02-06T22:29:58.519Z,116.77
2019-02-06T22:32:29.135Z,116.60
2019-02-06T22:35:00.443Z,114.47
2019-02-06T22:37:31.207Z,126.53
2019-02-06T22:40:02.535Z,118.90
2019-02-06T22:42:33.252Z,131.60
2019-02-06T22:45:04.305Z,134.60
2019-02-06T22:47:34.926Z,134.40
2019-02-06T22:50:09.051Z,133.43
2019-02-06T22:52:40.617Z,126.73
2019-02-06T22:55:12.412Z,122.67
2019-02-06T22:57:43.906Z,126.87
2019-02-06T23:00:46.916Z,120.97
2019-02-06T23:03:24.674Z,127.80
2019-02-06T23:05:55.202Z,124.40
2019-02-06T23:08:28.012Z,120.30
2019-02-06T23:10:58.967Z,120.17
2019-02-06T23:13:29.604Z,116.50
2019-02-06T23:16:00.041Z,119.30
2019-02-06T23:18:30.402Z,120.30
2019-02-06T23:21:01.952Z,113.60
2019-02-06T23:23:32.314Z,115.50
2019-02-06T23:26:03.042Z,112.60
2019-02-06T23:28:34.154Z,112.43
2019-02-06T23:31:05.647Z,106.50
2019-02-06T23:33:38.077Z,104.43
2019-02-06T23:36:10.083Z,111.20
2019-02-06T23:38:40.944Z,113.75
2019-02-06T23:41:11.468Z,105.63
2019-02-06T23:43:43.308Z,115.07
2019-02-06T23:46:13.714Z,116.00
2019-02-06T23:48:44.470Z,111.03
2019-02-06T23:51:15.252Z,107.03
2019-02-06T23:53:46.215Z,107.47
2019-02-06T23:56:16.891Z,107.12
2019-02-06T23:58:47.610Z,100.00
